createdAt,value
2018-03-27T00:01:06.024Z,8.00
2018-03-27T00:03:33.406Z,7.68
2018-03-27T00:06:00.826Z,7.90
2018-03-27T00:08:28.223Z,7.50
2018-03-27T00:10:55.634Z,7.93
2018-03-27T00:13:23.546Z,7.30
2018-03-27T00:15:50.940Z,7.20
2018-03-27T00:18:18.323Z,9.17
2018-03-27T00:20:45.728Z,7.90
2018-03-27T00:23:13.173Z,8.07
2018-03-27T00:25:40.594Z,7.93
2018-03-27T00:28:19.820Z,8.40
2018-03-27T00:30:59.157Z,7.97
2018-03-27T00:33:38.298Z,8.57
2018-03-27T00:36:17.441Z,7.70
2018-03-27T00:38:56.560Z,8.57
2018-03-27T00:44:35.840Z,7.77
2018-03-27T00:47:03.222Z,7.80
2018-03-27T00:49:30.622Z,8.20
2018-03-27T00:51:58.010Z,8.10
2018-03-27T00:54:25.387Z,7.33
2018-03-27T00:56:53.753Z,8.23
2018-03-27T00:59:21.133Z,7.10
2018-03-27T01:01:48.601Z,7.22
2018-03-27T01:04:16.014Z,8.83
2018-03-27T01:06:43.414Z,8.53
2018-03-27T01:09:10.809Z,7.65
2018-03-27T01:11:38.203Z,6.78
2018-03-27T01:14:05.634Z,7.97
2018-03-27T01:16:33.037Z,8.10
2018-03-27T01:19:00.438Z,8.17
2018-03-27T01:21:27.847Z,8.87
2018-03-27T01:23:55.238Z,8.10
2018-03-27T01:26:22.694Z,7.20
2018-03-27T01:28:50.050Z,8.43
2018-03-27T01:31:17.444Z,7.87
2018-03-27T01:33:44.902Z,7.47
2018-03-27T01:36:12.297Z,7.87
2018-03-27T01:38:39.693Z,10.10
2018-03-27T01:41:07.116Z,9.67
2018-03-27T01:43:34.599Z,9.20
2018-03-27T01:46:02.006Z,10.43
2018-03-27T01:48:29.406Z,9.23
2018-03-27T01:50:56.829Z,9.27
2018-03-27T01:55:57.994Z,8.13
2018-03-27T01:58:25.386Z,9.20
2018-03-27T02:00:52.781Z,9.60
2018-03-27T02:03:20.239Z,9.93
2018-03-27T02:05:47.633Z,10.30
2018-03-27T02:08:15.029Z,11.07
2018-03-27T02:10:41.853Z,12.40
2018-03-27T02:13:14.892Z,13.20
2018-03-27T02:15:47.786Z,15.30
2018-03-27T02:18:20.682Z,14.10
2018-03-27T02:20:53.630Z,15.17
2018-03-27T02:23:22.261Z,14.80
2018-03-27T02:25:49.653Z,15.30
2018-03-27T02:28:17.057Z,13.98
2018-03-27T02:30:44.466Z,13.60
2018-03-27T02:33:11.863Z,13.10
2018-03-27T02:35:39.252Z,13.07
2018-03-27T02:38:06.648Z,14.35
2018-03-27T02:40:34.077Z,13.10
2018-03-27T02:43:01.477Z,15.03
2018-03-27T02:45:28.878Z,15.37
2018-03-27T02:47:56.299Z,15.43
2018-03-27T02:50:24.191Z,16.77
2018-03-27T02:52:51.603Z,15.50
2018-03-27T02:55:19.007Z,16.97
2018-03-27T02:57:46.390Z,17.33
2018-03-27T03:00:13.788Z,17.17
2018-03-27T03:02:41.203Z,16.87
2018-03-27T03:05:08.603Z,17.43
2018-03-27T03:07:36.019Z,17.67
2018-03-27T03:10:03.440Z,15.17
2018-03-27T03:12:30.843Z,15.30
2018-03-27T03:14:58.220Z,14.68
2018-03-27T03:17:25.642Z,14.00
2018-03-27T03:19:53.042Z,13.03
2018-03-27T03:22:20.454Z,13.90
2018-03-27T03:24:47.835Z,13.70
2018-03-27T03:27:15.234Z,11.60
2018-03-27T03:29:42.633Z,11.80
2018-03-27T03:32:10.033Z,12.10
2018-03-27T03:34:37.433Z,11.27
2018-03-27T03:37:04.828Z,10.93
2018-03-27T03:39:32.230Z,12.10
2018-03-27T03:41:59.636Z,13.62
2018-03-27T03:44:27.034Z,14.77
2018-03-27T03:46:54.508Z,14.10
2018-03-27T03:49:21.892Z,15.83
2018-03-27T03:51:49.295Z,16.57
2018-03-27T03:54:16.677Z,17.17
2018-03-27T03:56:44.087Z,17.83
2018-03-27T03:59:11.477Z,19.75
2018-03-27T04:01:38.865Z,20.23
2018-03-27T04:04:06.291Z,20.23
2018-03-27T04:06:33.694Z,20.87
2018-03-27T04:09:01.099Z,18.67
2018-03-27T04:11:28.490Z,18.20
2018-03-27T04:13:55.882Z,17.90
2018-03-27T04:16:23.276Z,17.27
2018-03-27T04:18:50.682Z,16.73
2018-03-27T04:21:18.071Z,18.90
2018-03-27T04:23:45.473Z,20.30
2018-03-27T04:26:12.885Z,20.00
2018-03-27T04:28:40.267Z,20.13
2018-03-27T04:31:07.663Z,23.53
2018-03-27T04:33:35.063Z,23.90
2018-03-27T04:36:02.462Z,23.53
2018-03-27T04:38:29.906Z,25.10
2018-03-27T04:40:57.320Z,25.73
2018-03-27T04:43:24.934Z,24.67
2018-03-27T04:45:52.327Z,24.57
2018-03-27T04:48:19.713Z,26.35
2018-03-27T04:50:47.104Z,26.40
2018-03-27T04:53:14.518Z,27.40
2018-03-27T04:55:42.285Z,29.48
2018-03-27T04:58:09.678Z,26.07
2018-03-27T05:00:37.086Z,26.53
2018-03-27T05:03:04.481Z,28.20
2018-03-27T05:05:31.890Z,28.20
2018-03-27T05:07:59.282Z,29.63
2018-03-27T05:10:27.107Z,30.90
2018-03-27T05:12:54.989Z,30.80
2018-03-27T05:15:22.388Z,28.60
2018-03-27T05:17:49.797Z,27.97
2018-03-27T05:20:17.198Z,28.17
2018-03-27T05:22:44.586Z,28.73
2018-03-27T05:25:11.989Z,29.70
2018-03-27T05:27:39.380Z,26.97
2018-03-27T05:30:06.796Z,27.90
2018-03-27T05:32:34.192Z,26.60
2018-03-27T05:35:01.634Z,28.60
2018-03-27T05:37:29.022Z,27.85
2018-03-27T05:39:56.397Z,25.13
2018-03-27T05:42:23.833Z,26.30
2018-03-27T05:44:51.224Z,24.00
2018-03-27T05:47:18.633Z,24.83
2018-03-27T05:49:46.034Z,21.20
2018-03-27T05:52:13.429Z,22.73
2018-03-27T05:54:40.822Z,21.58
2018-03-27T05:57:08.221Z,22.20
2018-03-27T05:59:35.652Z,20.60
2018-03-27T06:02:03.053Z,22.60
2018-03-27T06:04:30.456Z,22.00
2018-03-27T06:06:57.877Z,20.93
2018-03-27T06:09:25.265Z,21.13
2018-03-27T06:11:52.705Z,18.50
2018-03-27T06:14:20.104Z,19.10
2018-03-27T06:16:47.496Z,20.40
2018-03-27T06:19:14.885Z,18.67
2018-03-27T06:21:42.284Z,19.47
2018-03-27T06:24:09.760Z,19.80
2018-03-27T06:26:37.245Z,20.40
2018-03-27T06:29:04.640Z,19.70
2018-03-27T06:31:32.038Z,20.02
2018-03-27T06:33:59.433Z,20.23
2018-03-27T06:36:26.829Z,20.27
2018-03-27T06:38:54.237Z,20.90
2018-03-27T06:41:21.628Z,21.50
2018-03-27T06:43:49.037Z,21.90
2018-03-27T06:46:16.417Z,20.97
2018-03-27T06:48:43.823Z,21.30
2018-03-27T06:51:11.222Z,21.10
2018-03-27T06:53:38.593Z,20.93
2018-03-27T06:56:05.995Z,21.63
2018-03-27T06:58:33.385Z,23.33
2018-03-27T07:01:00.780Z,21.80
2018-03-27T07:03:28.168Z,20.80
2018-03-27T07:05:55.597Z,20.50
2018-03-27T07:08:22.953Z,20.73
2018-03-27T07:10:50.353Z,21.10
2018-03-27T07:13:17.749Z,22.13
2018-03-27T07:15:45.172Z,22.23
2018-03-27T07:18:12.567Z,21.55
2018-03-27T07:20:39.968Z,21.70
2018-03-27T07:23:07.348Z,23.40
2018-03-27T07:25:34.744Z,23.97
2018-03-27T07:28:02.138Z,21.80
2018-03-27T07:30:29.554Z,23.27
2018-03-27T07:32:56.940Z,24.10
2018-03-27T07:35:24.326Z,26.30
2018-03-27T07:37:51.733Z,25.37
2018-03-27T07:40:19.128Z,29.20
2018-03-27T07:42:46.530Z,29.40
2018-03-27T07:45:13.921Z,26.93
2018-03-27T07:47:41.311Z,30.07
2018-03-27T07:50:08.694Z,27.60
2018-03-27T07:52:36.096Z,28.20
2018-03-27T07:55:03.491Z,27.65
2018-03-27T07:57:30.876Z,25.20
2018-03-27T07:59:58.269Z,25.80
2018-03-27T08:02:25.717Z,24.03
2018-03-27T08:04:53.101Z,25.67
2018-03-27T08:07:20.534Z,24.13
2018-03-27T08:09:47.921Z,26.33
2018-03-27T08:12:15.330Z,24.37
2018-03-27T08:14:42.727Z,24.97
2018-03-27T08:17:10.150Z,23.50
2018-03-27T08:19:37.553Z,23.30
2018-03-27T08:22:04.937Z,22.23
2018-03-27T08:24:32.367Z,20.00
2018-03-27T08:26:59.732Z,20.10
2018-03-27T08:29:27.157Z,15.60
2018-03-27T08:31:54.545Z,16.17
2018-03-27T08:34:21.940Z,16.83
2018-03-27T08:36:49.334Z,17.40
2018-03-27T08:39:16.736Z,18.10
2018-03-27T08:41:44.124Z,19.00
2018-03-27T08:44:11.546Z,19.92
2018-03-27T08:46:38.937Z,21.20
2018-03-27T08:49:06.340Z,16.53
2018-03-27T08:51:33.730Z,15.40
2018-03-27T08:54:01.141Z,15.10
2018-03-27T08:56:28.528Z,14.93
2018-03-27T08:58:55.986Z,15.25
2018-03-27T09:01:23.396Z,14.10
2018-03-27T09:03:50.778Z,16.20
2018-03-27T09:06:18.246Z,18.23
2018-03-27T09:08:45.589Z,12.90
2018-03-27T09:11:12.993Z,15.73
2018-03-27T09:13:40.398Z,16.03
2018-03-27T09:16:07.807Z,18.90
2018-03-27T09:18:35.208Z,18.80
2018-03-27T09:21:02.612Z,16.43
2018-03-27T09:23:30.002Z,18.73
2018-03-27T09:25:57.409Z,19.57
2018-03-27T09:28:24.801Z,23.50
2018-03-27T09:30:52.202Z,23.10
2018-03-27T09:33:19.593Z,24.83
2018-03-27T09:35:46.989Z,24.57
2018-03-27T09:38:14.386Z,24.23
2018-03-27T09:40:41.786Z,24.90
2018-03-27T09:43:09.172Z,26.50
2018-03-27T09:45:36.596Z,27.40
2018-03-27T09:48:04.015Z,22.73
2018-03-27T09:50:31.409Z,23.20
2018-03-27T09:52:58.808Z,23.60
2018-03-27T09:55:26.245Z,22.93
2018-03-27T09:57:53.650Z,20.67
2018-03-27T10:00:26.553Z,22.13
2018-03-27T10:02:53.956Z,21.63
2018-03-27T10:05:21.345Z,22.40
2018-03-27T10:07:48.760Z,22.90
2018-03-27T10:10:16.168Z,22.33
2018-03-27T10:12:43.569Z,22.98
2018-03-27T10:15:10.974Z,23.20
2018-03-27T10:17:38.378Z,21.37
2018-03-27T10:20:05.785Z,21.43
2018-03-27T10:22:33.181Z,20.10
2018-03-27T10:25:00.590Z,21.50
2018-03-27T10:27:27.994Z,21.60
2018-03-27T10:29:56.369Z,23.55
2018-03-27T10:32:23.838Z,24.23
2018-03-27T10:34:51.240Z,22.77
2018-03-27T10:37:18.634Z,21.03
2018-03-27T10:39:46.038Z,22.03
2018-03-27T10:42:13.448Z,21.27
2018-03-27T10:44:40.861Z,18.70
2018-03-27T10:47:08.276Z,20.23
2018-03-27T10:49:35.691Z,19.90
2018-03-27T10:52:03.102Z,20.90
2018-03-27T10:54:30.509Z,19.93
2018-03-27T10:56:57.917Z,18.60
2018-03-27T10:59:25.341Z,18.27
2018-03-27T11:01:52.774Z,17.07
2018-03-27T11:04:20.169Z,18.93
2018-03-27T11:06:47.582Z,16.27
2018-03-27T11:09:14.993Z,18.10
2018-03-27T11:11:42.409Z,16.73
2018-03-27T11:14:09.841Z,16.70
2018-03-27T11:16:37.243Z,16.57
2018-03-27T11:19:04.649Z,16.00
2018-03-27T11:21:32.039Z,16.80
2018-03-27T11:23:59.436Z,17.90
2018-03-27T11:26:26.918Z,18.67
2018-03-27T11:28:54.338Z,16.30
2018-03-27T11:31:21.767Z,16.07
2018-03-27T11:33:49.149Z,18.20
2018-03-27T11:36:16.540Z,17.60
2018-03-27T11:38:43.927Z,16.03
2018-03-27T11:41:11.338Z,17.75
2018-03-27T11:43:38.716Z,18.17
2018-03-27T11:46:06.126Z,16.95
2018-03-27T11:48:34.566Z,15.83
2018-03-27T11:51:02.038Z,16.50
2018-03-27T11:53:29.420Z,17.00
2018-03-27T11:55:56.913Z,15.82
2018-03-27T11:58:24.315Z,15.80
2018-03-27T12:00:51.909Z,15.27
2018-03-27T12:03:19.296Z,16.57
2018-03-27T12:05:46.695Z,16.83
2018-03-27T12:08:14.121Z,15.70
2018-03-27T12:10:41.517Z,15.90
2018-03-27T12:13:08.913Z,15.75
2018-03-27T12:15:36.346Z,15.27
2018-03-27T12:18:03.739Z,15.10
2018-03-27T12:20:31.124Z,14.50
2018-03-27T12:22:58.521Z,17.07
2018-03-27T12:25:25.905Z,15.73
2018-03-27T12:27:53.325Z,15.40
2018-03-27T12:30:20.733Z,16.03
2018-03-27T12:32:48.149Z,16.57
2018-03-27T12:35:15.901Z,16.07
2018-03-27T12:37:43.327Z,15.97
2018-03-27T12:40:10.735Z,17.20
2018-03-27T12:42:38.145Z,15.70
2018-03-27T12:45:05.550Z,16.92
2018-03-27T12:47:32.969Z,16.62
2018-03-27T12:50:00.362Z,16.73
2018-03-27T12:52:27.841Z,16.20
2018-03-27T12:54:55.351Z,16.20
2018-03-27T12:57:22.809Z,16.40
2018-03-27T12:59:50.277Z,15.33
2018-03-27T13:02:17.609Z,16.03
2018-03-27T13:04:45.014Z,14.70
2018-03-27T13:07:12.415Z,15.10
2018-03-27T13:09:39.814Z,15.63
2018-03-27T13:12:07.206Z,17.43
2018-03-27T13:14:34.595Z,16.27
2018-03-27T13:17:01.987Z,16.00
2018-03-27T13:19:30.231Z,15.77
2018-03-27T13:21:57.911Z,15.60
2018-03-27T13:24:25.347Z,16.63
2018-03-27T13:26:52.741Z,16.40
2018-03-27T13:29:20.154Z,17.17
2018-03-27T13:31:47.568Z,17.27
2018-03-27T13:34:15.142Z,15.83
2018-03-27T13:36:42.652Z,18.10
2018-03-27T13:39:10.043Z,16.97
2018-03-27T13:41:37.451Z,17.40
2018-03-27T13:44:04.853Z,18.50
2018-03-27T13:46:32.235Z,17.20
2018-03-27T13:48:59.618Z,18.47
2018-03-27T13:51:27.401Z,17.10
2018-03-27T13:53:54.814Z,18.67
2018-03-27T13:56:22.203Z,17.43
2018-03-27T13:58:49.603Z,20.20
2018-03-27T14:01:17.011Z,18.17
2018-03-27T14:03:44.422Z,18.20
2018-03-27T14:06:11.829Z,18.30
2018-03-27T14:08:39.230Z,18.45
2018-03-27T14:11:06.630Z,18.20
2018-03-27T14:13:34.022Z,18.33
2018-03-27T14:16:01.433Z,19.20
2018-03-27T14:18:28.825Z,17.67
2018-03-27T14:20:56.262Z,18.60
2018-03-27T14:23:23.667Z,18.00
2018-03-27T14:25:51.059Z,19.53
2018-03-27T14:28:18.458Z,17.63
2018-03-27T14:30:45.837Z,19.30
2018-03-27T14:33:13.241Z,19.50
2018-03-27T14:35:41.625Z,18.70
2018-03-27T14:38:09.031Z,18.73
2018-03-27T14:40:36.457Z,20.53
2018-03-27T14:43:03.857Z,19.60
2018-03-27T14:45:31.253Z,18.90
2018-03-27T14:47:58.681Z,21.13
2018-03-27T14:50:26.081Z,20.00
2018-03-27T14:52:53.556Z,18.50
2018-03-27T14:55:20.942Z,18.67
2018-03-27T14:57:48.348Z,20.80
2018-03-27T15:00:15.739Z,18.77
2018-03-27T15:02:43.137Z,17.75
2018-03-27T15:05:11.470Z,18.90
2018-03-27T15:07:38.885Z,18.57
2018-03-27T15:10:10.094Z,18.47
2018-03-27T15:12:37.450Z,17.33
2018-03-27T15:15:04.854Z,18.00
2018-03-27T15:17:32.257Z,17.60
2018-03-27T15:20:00.418Z,18.27
2018-03-27T15:22:27.801Z,17.90
2018-03-27T15:24:55.221Z,17.00
2018-03-27T15:27:23.618Z,17.20
2018-03-27T15:29:50.993Z,17.60
2018-03-27T15:32:18.395Z,18.30
2018-03-27T15:34:45.789Z,18.50
2018-03-27T15:37:13.173Z,17.17
2018-03-27T15:39:40.610Z,18.27
2018-03-27T15:42:08.000Z,17.70
2018-03-27T15:44:35.414Z,17.83
2018-03-27T15:47:02.813Z,18.10
2018-03-27T15:49:30.209Z,16.97
2018-03-27T15:51:57.978Z,16.55
2018-03-27T15:54:25.395Z,18.00
2018-03-27T15:56:52.852Z,19.37
2018-03-27T15:59:20.278Z,19.30
2018-03-27T16:01:47.683Z,18.90
2018-03-27T16:04:15.078Z,18.97
2018-03-27T16:06:42.485Z,19.90
2018-03-27T16:09:09.878Z,19.73
2018-03-27T16:11:37.339Z,20.60
2018-03-27T16:14:04.677Z,19.97
2018-03-27T16:16:32.081Z,19.37
2018-03-27T16:18:59.468Z,20.30
2018-03-27T16:21:26.862Z,21.57
2018-03-27T16:23:54.262Z,20.17
2018-03-27T16:26:21.653Z,19.77
2018-03-27T16:28:49.037Z,20.00
2018-03-27T16:31:16.449Z,19.30
2018-03-27T16:33:43.843Z,19.37
2018-03-27T16:36:11.233Z,19.10
2018-03-27T16:38:38.641Z,19.62
2018-03-27T16:41:06.105Z,18.33
2018-03-27T16:43:33.543Z,17.80
2018-03-27T16:46:00.892Z,18.27
2018-03-27T16:48:28.294Z,18.97
2018-03-27T16:50:55.686Z,20.30
2018-03-27T16:53:23.090Z,21.10
2018-03-27T16:55:50.474Z,21.03
2018-03-27T16:58:17.979Z,20.77
2018-03-27T17:00:45.616Z,21.40
2018-03-27T17:03:13.014Z,21.20
2018-03-27T17:05:40.567Z,20.20
2018-03-27T17:08:07.992Z,22.07
2018-03-27T17:10:35.389Z,21.52
2018-03-27T17:13:02.992Z,21.10
2018-03-27T17:15:30.547Z,21.13
2018-03-27T17:17:58.425Z,19.87
2018-03-27T17:20:25.811Z,23.37
2018-03-27T17:22:53.240Z,21.70
2018-03-27T17:25:20.638Z,22.87
2018-03-27T17:27:48.027Z,22.20
2018-03-27T17:30:15.425Z,22.53
2018-03-27T17:32:42.817Z,25.67
2018-03-27T17:35:10.214Z,24.60
2018-03-27T17:37:38.624Z,24.63
2018-03-27T17:40:06.050Z,23.77
2018-03-27T17:42:34.342Z,25.33
2018-03-27T17:45:01.737Z,24.67
2018-03-27T17:47:29.141Z,22.43
2018-03-27T17:49:56.541Z,26.20
2018-03-27T17:52:23.918Z,25.23
2018-03-27T17:54:51.329Z,25.15
2018-03-27T17:57:18.741Z,23.10
2018-03-27T17:59:47.230Z,23.80
2018-03-27T18:02:14.566Z,23.13
2018-03-27T18:04:41.970Z,23.77
2018-03-27T18:07:09.507Z,22.80
2018-03-27T18:09:36.942Z,25.10
2018-03-27T18:12:04.326Z,24.23
2018-03-27T18:14:31.752Z,24.30
2018-03-27T18:16:59.193Z,23.70
2018-03-27T18:19:26.604Z,24.48
2018-03-27T18:21:54.026Z,25.23
2018-03-27T18:24:21.425Z,24.93
2018-03-27T18:26:48.844Z,25.77
2018-03-27T18:29:16.415Z,26.90
2018-03-27T18:31:43.821Z,26.60
2018-03-27T18:34:11.200Z,25.15
2018-03-27T18:36:38.626Z,24.30
2018-03-27T18:39:06.014Z,23.23
2018-03-27T18:41:33.418Z,22.73
2018-03-27T18:44:00.824Z,23.83
2018-03-27T18:46:28.683Z,24.25
2018-03-27T18:48:56.089Z,23.00
2018-03-27T18:51:23.476Z,22.70
2018-03-27T18:53:50.861Z,22.90
2018-03-27T18:56:18.258Z,23.23
2018-03-27T18:58:45.643Z,23.30
2018-03-27T19:01:13.051Z,23.43
2018-03-27T19:03:40.435Z,23.27
2018-03-27T19:06:07.825Z,22.70
2018-03-27T19:08:35.262Z,20.33
2018-03-27T19:11:02.662Z,22.30
2018-03-27T19:13:30.055Z,22.03
2018-03-27T19:15:57.605Z,22.97
2018-03-27T19:18:25.287Z,22.57
2018-03-27T19:20:52.685Z,23.07
2018-03-27T19:23:20.079Z,23.13
2018-03-27T19:25:47.609Z,23.30
2018-03-27T19:28:15.012Z,21.73
2018-03-27T19:30:42.396Z,20.97
2018-03-27T19:33:09.794Z,24.03
2018-03-27T19:35:37.239Z,24.03
2018-03-27T19:38:04.687Z,23.33
2018-03-27T19:40:32.156Z,24.10
2018-03-27T19:42:59.604Z,23.67
2018-03-27T19:45:26.972Z,24.23
2018-03-27T19:47:54.598Z,25.47
2018-03-27T19:50:21.987Z,25.50
2018-03-27T19:52:50.368Z,24.10
2018-03-27T19:55:17.802Z,24.13
2018-03-27T19:57:45.202Z,25.87
2018-03-27T20:00:12.598Z,23.73
2018-03-27T20:02:39.979Z,25.20
2018-03-27T20:05:07.362Z,23.05
2018-03-27T20:07:34.787Z,26.37
2018-03-27T20:10:02.191Z,25.03
2018-03-27T20:12:29.581Z,25.30
2018-03-27T20:14:56.975Z,25.77
2018-03-27T20:17:24.363Z,24.73
2018-03-27T20:19:51.762Z,27.23
2018-03-27T20:22:19.145Z,24.17
2018-03-27T20:24:46.545Z,25.40
2018-03-27T20:27:13.934Z,25.30
2018-03-27T20:29:41.334Z,24.10
2018-03-27T20:32:08.749Z,23.60
2018-03-27T20:34:36.131Z,23.70
2018-03-27T20:37:03.589Z,25.60
2018-03-27T20:39:30.961Z,25.70
2018-03-27T20:41:59.357Z,25.42
2018-03-27T20:44:26.755Z,24.33
2018-03-27T20:46:54.145Z,23.77
2018-03-27T20:49:21.525Z,24.63
2018-03-27T20:51:48.923Z,23.57
2018-03-27T20:54:16.301Z,24.60
2018-03-27T20:56:43.698Z,23.17
2018-03-27T20:59:11.094Z,26.15
2018-03-27T21:01:38.486Z,23.10
2018-03-27T21:04:05.899Z,25.43
2018-03-27T21:06:33.279Z,24.60
2018-03-27T21:09:00.660Z,24.03
2018-03-27T21:11:28.058Z,24.10
2018-03-27T21:13:55.434Z,23.60
2018-03-27T21:16:22.815Z,23.47
2018-03-27T21:18:50.214Z,23.27
2018-03-27T21:21:17.594Z,21.23
2018-03-27T21:23:44.985Z,22.23
2018-03-27T21:26:12.379Z,21.67
2018-03-27T21:28:39.766Z,20.70
2018-03-27T21:31:07.147Z,24.63
2018-03-27T21:33:34.536Z,25.13
2018-03-27T21:36:01.922Z,23.40
2018-03-27T21:38:29.540Z,25.75
2018-03-27T21:40:56.925Z,25.73
2018-03-27T21:43:24.317Z,24.93
2018-03-27T21:45:51.726Z,23.80
2018-03-27T21:48:19.100Z,23.97
2018-03-27T21:50:46.507Z,23.52
2018-03-27T21:53:13.908Z,24.33
2018-03-27T21:55:41.296Z,25.62
2018-03-27T21:58:08.689Z,22.80
2018-03-27T22:00:36.083Z,24.80
2018-03-27T22:03:03.474Z,25.98
2018-03-27T22:05:30.855Z,23.10
2018-03-27T22:07:58.232Z,24.27
2018-03-27T22:10:25.622Z,23.60
2018-03-27T22:12:53.010Z,24.07
2018-03-27T22:15:20.395Z,25.67
2018-03-27T22:17:47.778Z,23.27
2018-03-27T22:20:15.165Z,25.97
2018-03-27T22:22:42.559Z,25.70
2018-03-27T22:25:09.942Z,26.90
2018-03-27T22:27:37.349Z,27.17
2018-03-27T22:30:05.695Z,30.30
2018-03-27T22:32:33.140Z,28.77
2018-03-27T22:35:00.505Z,29.27
2018-03-27T22:37:27.881Z,30.33
2018-03-27T22:39:55.278Z,28.77
2018-03-27T22:42:22.681Z,31.70
2018-03-27T22:44:50.093Z,32.30
2018-03-27T22:47:17.463Z,29.40
2018-03-27T22:49:44.846Z,31.73
2018-03-27T22:52:12.242Z,30.03
2018-03-27T22:54:39.630Z,29.20
2018-03-27T22:57:07.012Z,32.50
2018-03-27T22:59:34.394Z,32.03
2018-03-27T23:02:01.794Z,33.45
2018-03-27T23:04:29.952Z,30.77
2018-03-27T23:06:57.332Z,30.00
2018-03-27T23:09:24.732Z,33.00
2018-03-27T23:11:52.109Z,30.57
2018-03-27T23:14:19.497Z,31.60
2018-03-27T23:16:46.880Z,31.95
2018-03-27T23:19:14.265Z,31.03
2018-03-27T23:21:41.669Z,29.33
2018-03-27T23:24:09.041Z,31.12
2018-03-27T23:26:36.468Z,32.00
2018-03-27T23:29:03.854Z,31.37
2018-03-27T23:31:31.224Z,28.40
2018-03-27T23:33:58.613Z,31.47
2018-03-27T23:36:26.005Z,28.60
2018-03-27T23:38:53.470Z,27.00
2018-03-27T23:41:20.856Z,29.53
2018-03-27T23:43:48.254Z,27.53
2018-03-27T23:46:15.640Z,30.03
2018-03-27T23:48:43.042Z,30.27
2018-03-27T23:51:10.405Z,28.43
2018-03-27T23:53:37.814Z,29.13
2018-03-27T23:56:05.196Z,28.20
2018-03-27T23:58:32.597Z,28.63
